Time,TemperatureF,DewpointF,PressureIn,WindDirection,WindDirectionDegrees,WindSpeedMPH,WindSpeedGustMPH,Humidity,HourlyPrecipIn,Conditions,Clouds,dailyrainin,SoftwareType,DateUTC
2013-01-01 00:00:00,1.0,-3.0,-100.00,SSW,194,10.0,11.0,82,-99.99,,,-99.99,,2013-01-01 07:00:00,
2013-01-01 00:42:00,1.0,-3.0,-100.00,SSW,194,10.0,11.0,82,-99.99,,,-99.99,,2013-01-01 07:42:00,
2013-01-01 00:53:00,1.0,-3.0,-100.00,SSW,194,10.0,11.0,82,-99.99,,,-99.99,,2013-01-01 07:53:00,
2013-01-01 01:00:00,0.0,-4.0,-100.00,SSW,203,9.0,11.0,82,-99.99,,,-99.99,,2013-01-01 08:00:00,
2013-01-01 01:42:00,0.0,-4.0,-100.00,SSW,203,9.0,11.0,82,-99.99,,,-99.99,,2013-01-01 08:42:00,
2013-01-01 01:53:00,0.0,-4.0,-100.00,SSW,203,9.0,11.0,82,-99.99,,,-99.99,,2013-01-01 08:53:00,
2013-01-01 02:00:00,0.0,-5.0,-100.00,SSW,200,10.0,11.0,81,-99.99,,,-99.99,,2013-01-01 09:00:00,
2013-01-01 02:42:00,0.0,-5.0,-100.00,SSW,200,10.0,11.0,81,-99.99,,,-99.99,,2013-01-01 09:42:00,
2013-01-01 02:52:00,0.0,-5.0,-100.00,SSW,200,10.0,11.0,81,-99.99,,,-99.99,,2013-01-01 09:52:00,
2013-01-01 03:00:00,-1.0,-6.0,-100.00,SSW,202,10.0,13.0,81,-99.99,,,-99.99,,2013-01-01 10:00:00,
2013-01-01 03:43:00,-1.0,-6.0,-100.00,SSW,202,10.0,13.0,81,-99.99,,,-99.99,,2013-01-01 10:43:00,
2013-01-01 03:53:00,-1.0,-6.0,-100.00,SSW,202,10.0,13.0,81,-99.99,,,-99.99,,2013-01-01 10:53:00,
2013-01-01 04:00:00,-1.0,-6.0,-100.00,SSW,196,8.0,10.0,81,-99.99,,,-99.99,,2013-01-01 11:00:00,
2013-01-01 04:43:00,-1.0,-6.0,-100.00,SSW,196,8.0,10.0,81,-99.99,,,-99.99,,2013-01-01 11:43:00,
2013-01-01 04:53:00,-1.0,-6.0,-100.00,SSW,196,8.0,10.0,81,-99.99,,,-99.99,,2013-01-01 11:53:00,
2013-01-01 05:00:00,-1.0,-6.0,-100.00,SSW,199,8.0,10.0,81,-99.99,,,-99.99,,2013-01-01 12:00:00,
2013-01-01 05:43:00,-1.0,-6.0,-100.00,SSW,199,8.0,10.0,81,-99.99,,,-99.99,,2013-01-01 12:43:00,
2013-01-01 05:53:00,-1.0,-6.0,-100.00,SSW,199,8.0,10.0,81,-99.99,,,-99.99,,2013-01-01 12:53:00,
2013-01-01 06:00:00,-1.0,-6.0,-100.00,SSW,202,5.0,8.0,81,-99.99,,,-99.99,,2013-01-01 13:00:00,
2013-01-01 06:43:00,-1.0,-6.0,-100.00,SSW,202,5.0,8.0,81,-99.99,,,-99.99,,2013-01-01 13:43:00,
2013-01-01 06:53:00,-1.0,-6.0,-100.00,SSW,202,5.0,8.0,81,-99.99,,,-99.99,,2013-01-01 13:53:00,
2013-01-01 07:00:00,-2.0,-6.0,-100.00,South,187,3.0,4.0,80,-99.99,,,-99.99,,2013-01-01 14:00:00,
2013-01-01 07:43:00,-2.0,-6.0,-100.00,South,187,3.0,4.0,80,-99.99,,,-99.99,,2013-01-01 14:43:00,
2013-01-01 07:53:00,-2.0,-6.0,-100.00,South,187,3.0,4.0,80,-99.99,,,-99.99,,2013-01-01 14:53:00,
2013-01-01 08:00:00,-1.0,-5.0,-100.00,WNW,301,3.0,8.0,81,-99.99,,,-99.99,,2013-01-01 15:00:00,
2013-01-01 08:43:00,-1.0,-5.0,-100.00,WNW,301,3.0,8.0,81,-99.99,,,-99.99,,2013-01-01 15:43:00,
2013-01-01 08:53:00,-1.0,-5.0,-100.00,WNW,301,3.0,8.0,81,-99.99,,,-99.99,,2013-01-01 15:53:00,
2013-01-01 09:00:00,6.0,2.0,-100.00,NNE,26,3.0,14.0,82,-99.99,,,-99.99,,2013-01-01 16:00:00,
2013-01-01 09:43:00,6.0,2.0,-100.00,NNE,26,3.0,14.0,82,-99.99,,,-99.99,,2013-01-01 16:43:00,
2013-01-01 09:53:00,6.0,2.0,-100.00,NNE,26,3.0,14.0,82,-99.99,,,-99.99,,2013-01-01 16:53:00,
2013-01-01 10:00:00,8.0,4.0,-100.00,ENE,68,2.0,13.0,82,-99.99,,,-99.99,,2013-01-01 17:00:00,
2013-01-01 10:43:00,8.0,4.0,-100.00,ENE,68,2.0,13.0,82,-99.99,,,-99.99,,2013-01-01 17:43:00,
2013-01-01 10:53:00,8.0,4.0,-100.00,ENE,68,2.0,13.0,82,-99.99,,,-99.99,,2013-01-01 17:53:00,
2013-01-01 11:00:00,8.0,3.0,-100.00,NE,37,2.0,13.0,81,-99.99,,,-99.99,,2013-01-01 18:00:00,
2013-01-01 11:43:00,8.0,3.0,-100.00,NE,37,2.0,13.0,81,-99.99,,,-99.99,,2013-01-01 18:43:00,
2013-01-01 11:53:00,8.0,3.0,-100.00,NE,37,2.0,13.0,81,-99.99,,,-99.99,,2013-01-01 18:53:00,
2013-01-01 12:00:00,14.0,11.0,-100.00,SSW,206,4.0,8.0,88,-99.99,,,-99.99,,2013-01-01 19:00:00,
2013-01-01 12:43:00,14.0,11.0,-100.00,SSW,206,4.0,8.0,88,-99.99,,,-99.99,,2013-01-01 19:43:00,
2013-01-01 12:53:00,14.0,11.0,-100.00,SSW,206,4.0,8.0,88,-99.99,,,-99.99,,2013-01-01 19:53:00,
2013-01-01 13:00:00,12.0,9.0,-100.00,SSW,200,5.0,9.0,87,-99.99,,,-99.99,,2013-01-01 20:00:00,
2013-01-01 13:42:00,12.0,9.0,-100.00,SSW,200,5.0,9.0,87,-99.99,,,-99.99,,2013-01-01 20:42:00,
2013-01-01 13:53:00,12.0,9.0,-100.00,SSW,200,5.0,9.0,87,-99.99,,,-99.99,,2013-01-01 20:53:00,
2013-01-01 14:00:00,9.0,5.0,-100.00,SW,220,5.0,11.0,85,-99.99,,,-99.99,,2013-01-01 21:00:00,
2013-01-01 14:43:00,9.0,5.0,-100.00,SW,220,5.0,11.0,85,-99.99,,,-99.99,,2013-01-01 21:43:00,
2013-01-01 14:53:00,9.0,5.0,-100.00,SW,220,5.0,11.0,85,-99.99,,,-99.99,,2013-01-01 21:53:00,
2013-01-01 15:00:00,4.0,0.0,-100.00,WNW,282,6.0,14.0,82,-99.99,,,-99.99,,2013-01-01 22:00:00,
2013-01-01 15:43:00,4.0,0.0,-100.00,WNW,282,6.0,14.0,82,-99.99,,,-99.99,,2013-01-01 22:43:00,
2013-01-01 15:53:00,4.0,0.0,-100.00,WNW,282,6.0,14.0,82,-99.99,,,-99.99,,2013-01-01 22:53:00,
2013-01-01 16:00:00,3.0,-1.0,-100.00,WNW,292,7.0,16.0,82,-99.99,,,-99.99,,2013-01-01 23:00:00,
2013-01-01 16:42:00,3.0,-1.0,-100.00,WNW,292,7.0,16.0,82,-99.99,,,-99.99,,2013-01-01 23:42:00,
2013-01-01 16:53:00,3.0,-1.0,-100.00,WNW,292,7.0,16.0,82,-99.99,,,-99.99,,2013-01-01 23:53:00,
2013-01-01 17:00:00,1.0,-3.0,-100.00,NW,304,8.0,15.0,82,-99.99,,,-99.99,,2013-01-02 00:00:00,
2013-01-01 17:43:00,1.0,-3.0,-100.00,NW,304,8.0,15.0,82,-99.99,,,-99.99,,2013-01-02 00:43:00,
2013-01-01 17:53:00,1.0,-3.0,-100.00,NW,304,8.0,15.0,82,-99.99,,,-99.99,,2013-01-02 00:53:00,
2013-01-01 18:00:00,-1.0,-5.0,-100.00,NW,325,8.0,16.0,81,-99.99,,,-99.99,,2013-01-02 01:00:00,
2013-01-01 18:42:00,-1.0,-5.0,-100.00,NW,325,8.0,16.0,81,-99.99,,,-99.99,,2013-01-02 01:42:00,
2013-01-01 18:52:00,-1.0,-5.0,-100.00,NW,325,8.0,16.0,81,-99.99,,,-99.99,,2013-01-02 01:52:00,
2013-01-01 19:00:00,-2.0,-6.0,-100.00,WNW,299,8.0,15.0,80,-99.99,,,-99.99,,2013-01-02 02:00:00,
2013-01-01 19:43:00,-2.0,-6.0,-100.00,WNW,299,8.0,15.0,80,-99.99,,,-99.99,,2013-01-02 02:43:00,
2013-01-01 19:53:00,-2.0,-6.0,-100.00,WNW,299,8.0,15.0,80,-99.99,,,-99.99,,2013-01-02 02:53:00,
2013-01-01 20:00:00,-3.0,-7.0,-100.00,NW,308,9.0,16.0,80,-99.99,,,-99.99,,2013-01-02 03:00:00,
2013-01-01 20:42:00,-3.0,-7.0,-100.00,NW,308,9.0,16.0,80,-99.99,,,-99.99,,2013-01-02 03:42:00,
2013-01-01 20:53:00,-3.0,-7.0,-100.00,NW,308,9.0,16.0,80,-99.99,,,-99.99,,2013-01-02 03:53:00,
2013-01-01 21:00:00,-2.0,-7.0,-100.00,North,10,12.0,20.0,79,-99.99,,,-99.99,,2013-01-02 04:00:00,
2013-01-01 21:42:00,-2.0,-7.0,-100.00,North,10,12.0,20.0,79,-99.99,,,-99.99,,2013-01-02 04:42:00,
2013-01-01 21:52:00,-2.0,-7.0,-100.00,North,10,12.0,20.0,79,-99.99,,,-99.99,,2013-01-02 04:52:00,
2013-01-01 22:00:00,-1.0,-7.0,-100.00,NNW,327,6.0,19.0,76,-99.99,,,-99.99,,2013-01-02 05:00:00,
2013-01-01 22:43:00,-1.0,-7.0,-100.00,NNW,327,6.0,19.0,76,-99.99,,,-99.99,,2013-01-02 05:43:00,
2013-01-01 22:53:00,-1.0,-7.0,-100.00,NNW,327,6.0,19.0,76,-99.99,,,-99.99,,2013-01-02 05:53:00,
2013-01-01 23:00:00,2.0,-11.0,-100.00,NNW,327,10.0,19.0,54,-99.99,,,-99.99,,2013-01-02 06:00:00,
2013-01-01 23:43:00,2.0,-11.0,-100.00,NNW,327,10.0,19.0,54,-99.99,,,-99.99,,2013-01-02 06:43:00,
2013-01-01 23:53:00,2.0,-11.0,-100.00,NNW,327,10.0,19.0,54,-99.99,,,-99.99,,2013-01-02 06:53:00,